createdAt,value
2016-10-05T00:28:26.430Z,1009.17
2016-10-05T00:29:17.117Z,1009.18
2016-10-05T00:30:07.073Z,1009.19
2016-10-05T00:31:17.459Z,1009.16
2016-10-05T00:32:27.870Z,1009.16
2016-10-05T01:28:28.301Z,1008.97
2016-10-05T02:28:14.556Z,1008.72
2016-10-05T02:29:24.946Z,1008.7
2016-10-05T02:30:35.341Z,1008.7
2016-10-05T02:31:45.681Z,1008.7
2016-10-05T03:28:26.921Z,1008.48
2016-10-05T03:29:37.311Z,1008.46
2016-10-05T03:30:47.698Z,1008.46
2016-10-05T03:31:58.045Z,1008.46
2016-10-05T03:33:08.396Z,1008.46
2016-10-05T03:34:18.748Z,1008.46
2016-10-05T03:35:29.102Z,1008.46
2016-10-05T03:36:39.452Z,1008.46
2016-10-05T04:29:42.878Z,1008.35
2016-10-05T04:30:53.221Z,1008.35
2016-10-05T05:28:09.855Z,1008.31
2016-10-05T05:29:20.253Z,1008.31
2016-10-05T06:28:01.360Z,1008.45
2016-10-05T06:29:11.742Z,1008.42
2016-10-05T06:30:22.087Z,1008.42
2016-10-05T06:31:32.451Z,1008.42
2016-10-05T06:32:42.829Z,1008.42
2016-10-05T06:33:53.141Z,1008.42
2016-10-05T06:35:03.493Z,1008.42
2016-10-05T06:36:13.850Z,1008.42
2016-10-05T06:37:24.203Z,1008.42
2016-10-05T06:38:34.549Z,1008.42
2016-10-05T07:27:59.901Z,1008.91
2016-10-05T07:29:10.284Z,1008.93
2016-10-05T08:27:50.755Z,1008.86
2016-10-05T08:29:01.143Z,1008.87
2016-10-05T08:30:11.528Z,1008.85
2016-10-05T08:31:21.831Z,1008.86
2016-10-05T08:32:32.221Z,1008.91
2016-10-05T08:33:42.631Z,1008.89
2016-10-05T08:34:53.016Z,1008.86
2016-10-05T08:36:03.424Z,1008.81
2016-10-05T08:37:13.801Z,1008.82
2016-10-05T08:38:24.102Z,1008.83
2016-10-05T09:27:52.375Z,1008.78
2016-10-05T09:29:02.765Z,1008.83
2016-10-05T10:27:48.145Z,1008.7
2016-10-05T11:27:37.469Z,1007.83
2016-10-05T11:28:47.869Z,1007.85
2016-10-05T11:29:58.267Z,1007.83
2016-10-05T11:31:08.668Z,1007.75
2016-10-05T12:27:58.138Z,1007.02
2016-10-05T12:29:08.528Z,1006.98
2016-10-05T13:28:04.974Z,1006.21
2016-10-05T13:29:15.356Z,1006.3
2016-10-05T13:30:25.745Z,1006.24
2016-10-05T13:31:36.145Z,1006.28
2016-10-05T13:32:46.539Z,1006.26
2016-10-05T13:33:56.933Z,1006.25
2016-10-05T13:35:07.337Z,1006.29
2016-10-05T13:36:17.737Z,1006.22
2016-10-05T13:37:28.130Z,1006.23
2016-10-05T13:38:38.531Z,1006.18
2016-10-05T13:39:48.933Z,1006.23
2016-10-05T13:40:59.325Z,1006.21
2016-10-05T13:42:09.729Z,1006.21
2016-10-05T13:43:20.127Z,1006.21
2016-10-05T13:44:30.484Z,1006.21
2016-10-05T14:28:00.475Z,1006.18
2016-10-05T14:29:10.865Z,1006.13
2016-10-05T15:27:58.967Z,0
2016-10-05T15:29:09.325Z,0
2016-10-05T15:30:19.649Z,0
2016-10-05T15:31:30.019Z,0
2016-10-05T16:27:59.935Z,0
2016-10-05T17:28:00.977Z,0
2016-10-05T17:29:11.313Z,0
2016-10-05T17:30:21.661Z,0
2016-10-05T17:31:32.033Z,0
2016-10-05T17:32:42.373Z,0
2016-10-05T17:33:52.712Z,0
2016-10-05T17:35:03.061Z,0
2016-10-05T17:36:13.409Z,0
2016-10-05T17:37:23.765Z,0
2016-10-05T17:38:34.119Z,0
2016-10-05T17:39:44.460Z,0
2016-10-05T17:40:54.717Z,0
2016-10-05T17:42:05.075Z,0
2016-10-05T17:43:15.446Z,0
2016-10-05T17:44:25.793Z,0
2016-10-05T18:28:21.985Z,1005.53
2016-10-05T18:29:32.337Z,1005.53
2016-10-05T18:30:42.676Z,1005.53
2016-10-05T18:31:53.023Z,1005.53
2016-10-05T18:33:03.378Z,1005.53
2016-10-05T18:34:13.727Z,1005.53
2016-10-05T18:35:24.079Z,1005.53
2016-10-05T18:36:34.424Z,1005.53
2016-10-05T18:37:44.779Z,1005.53
2016-10-05T18:38:55.129Z,1005.53
2016-10-05T18:40:05.484Z,1005.53
2016-10-05T19:28:38.203Z,1004.94
2016-10-05T19:29:48.361Z,1004.94
2016-10-05T19:30:58.720Z,1004.94
2016-10-05T19:32:09.303Z,1004.94
2016-10-05T19:33:19.415Z,1004.94
2016-10-05T19:34:29.762Z,1004.94
2016-10-05T19:35:40.122Z,1004.94
2016-10-05T19:36:50.475Z,1004.94
2016-10-05T19:38:00.826Z,1004.94
2016-10-05T20:28:40.182Z,0
2016-10-05T20:43:02.213Z,0
2016-10-05T20:52:27.194Z,1004.49
2016-10-05T20:53:17.686Z,1004.46
2016-10-05T20:54:28.040Z,1004.46
2016-10-05T20:55:38.394Z,1004.46
2016-10-05T20:56:48.745Z,1004.46
2016-10-05T20:57:59.088Z,1004.46
2016-10-05T23:28:29.971Z,0
2016-10-05T23:29:40.320Z,0
2016-10-05T23:30:50.671Z,0
2016-10-05T23:32:01.045Z,0
